Time;durP1;ratioP1;P1;durP2;ratioP2;P2;SDS_P1;SDS_P2;PMS_P1;PMS_P2;Temp;Humidity;BMP_temperature;BMP_pressure;BME280_temperature;BME280_humidity;BME280_pressure;Samples;Min_cycle;Max_cycle;Signal;HPM_P1;HPM_P2
2022/09/18 00:00:08;;;;;;;2.6;1.7;;;;;;;7.57;87.75293;95247.75;;;;
2022/09/18 00:01:10;;;;;;;2.6;1.7;;;;;;;7.57;87.75293;95247.75;;;;
2022/09/18 00:02:13;;;;;;;2.6;1.7;;;;;;;7.57;87.75293;95247.75;;;;
2022/09/18 00:03:14;;;;;;;2.6;1.7;;;;;;;7.57;87.75293;95247.75;;;;
2022/09/18 00:04:15;;;;;;;2.6;1.7;;;;;;;7.57;87.75293;95247.75;;;;
2022/09/18 00:05:15;;;;;;;2.6;1.7;;;;;;;7.57;87.75293;95247.75;;;;
2022/09/18 00:06:16;;;;;;;2.6;1.7;;;;;;;7.57;87.75293;95247.75;;;;
2022/09/18 00:07:20;;;;;;;5.2;1.85;;;;;;;7.65;87.97363;95261.53;;;;
2022/09/18 00:08:20;;;;;;;5.2;1.85;;;;;;;7.65;87.97363;95261.53;;;;
2022/09/18 00:09:21;;;;;;;5.2;1.85;;;;;;;7.65;87.97363;95261.53;;;;
2022/09/18 00:10:21;;;;;;;5.2;1.85;;;;;;;7.65;87.97363;95261.53;;;;
2022/09/18 00:11:22;;;;;;;5.2;1.85;;;;;;;7.65;87.97363;95261.53;;;;
2022/09/18 00:12:24;;;;;;;5.2;1.85;;;;;;;7.65;87.97363;95261.53;;;;
2022/09/18 00:13:25;;;;;;;5.2;1.85;;;;;;;7.65;87.97363;95261.53;;;;
2022/09/18 00:14:25;;;;;;;5.2;1.85;;;;;;;7.65;87.97363;95261.53;;;;
2022/09/18 00:15:25;;;;;;;5.2;1.85;;;;;;;7.65;87.97363;95261.53;;;;
2022/09/18 00:16:26;;;;;;;5.2;1.85;;;;;;;7.65;87.97363;95261.53;;;;
2022/09/18 00:17:26;;;;;;;4.55;2.2;;;;;;;7.81;88.25781;95253.02;;;;
2022/09/18 00:18:27;;;;;;;4.55;2.2;;;;;;;7.81;88.25781;95253.02;;;;
2022/09/18 00:19:28;;;;;;;4.55;2.2;;;;;;;7.81;88.25781;95253.02;;;;
2022/09/18 00:20:29;;;;;;;4.55;2.2;;;;;;;7.81;88.25781;95253.02;;;;
2022/09/18 00:21:30;;;;;;;4.55;2.2;;;;;;;7.81;88.25781;95253.02;;;;
2022/09/18 00:22:31;;;;;;;4.55;2.2;;;;;;;7.81;88.25781;95253.02;;;;
2022/09/18 00:23:32;;;;;;;4.55;2.2;;;;;;;7.81;88.25781;95253.02;;;;
2022/09/18 00:24:33;;;;;;;4.55;2.2;;;;;;;7.81;88.25781;95253.02;;;;
2022/09/18 00:25:34;;;;;;;4.55;2.2;;;;;;;7.81;88.25781;95253.02;;;;
2022/09/18 00:26:35;;;;;;;4.55;2.2;;;;;;;7.81;88.25781;95253.02;;;;
2022/09/18 00:27:35;;;;;;;4.55;2.2;;;;;;;7.81;88.25781;95253.02;;;;
2022/09/18 00:28:36;;;;;;;5.95;1.95;;;;;;;7.84;88.21191;95252.54;;;;
2022/09/18 00:29:36;;;;;;;5.95;1.95;;;;;;;7.84;88.21191;95252.54;;;;
2022/09/18 00:30:37;;;;;;;5.95;1.95;;;;;;;7.84;88.21191;95252.54;;;;
2022/09/18 00:31:37;;;;;;;5.95;1.95;;;;;;;7.84;88.21191;95252.54;;;;
2022/09/18 00:32:39;;;;;;;5.95;1.95;;;;;;;7.84;88.21191;95252.54;;;;
2022/09/18 00:33:39;;;;;;;5.95;1.95;;;;;;;7.84;88.21191;95252.54;;;;
2022/09/18 00:34:40;;;;;;;5.95;1.95;;;;;;;7.84;88.21191;95252.54;;;;
2022/09/18 00:35:41;;;;;;;5.95;1.95;;;;;;;7.84;88.21191;95252.54;;;;
2022/09/18 00:36:42;;;;;;;5.95;1.95;;;;;;;7.84;88.21191;95252.54;;;;
2022/09/18 00:37:44;;;;;;;5.95;1.95;;;;;;;7.84;88.21191;95252.54;;;;
2022/09/18 00:38:45;;;;;;;5.95;1.95;;;;;;;7.84;88.21191;95252.54;;;;
2022/09/18 00:39:46;;;;;;;2.85;1.85;;;;;;;7.84;88.4248;95263.06;;;;
2022/09/18 00:40:47;;;;;;;2.85;1.85;;;;;;;7.84;88.4248;95263.06;;;;
2022/09/18 00:41:48;;;;;;;2.85;1.85;;;;;;;7.84;88.4248;95263.06;;;;
2022/09/18 00:42:49;;;;;;;2.85;1.85;;;;;;;7.84;88.4248;95263.06;;;;
2022/09/18 00:43:49;;;;;;;2.85;1.85;;;;;;;7.84;88.4248;95263.06;;;;
2022/09/18 00:44:51;;;;;;;2.85;1.85;;;;;;;7.84;88.4248;95263.06;;;;
2022/09/18 00:45:52;;;;;;;2.85;1.85;;;;;;;7.84;88.4248;95263.06;;;;
2022/09/18 00:46:56;;;;;;;2.85;1.85;;;;;;;7.84;88.4248;95263.06;;;;
2022/09/18 00:48:02;;;;;;;2.85;1.85;;;;;;;7.84;88.4248;95263.06;;;;
2022/09/18 00:49:02;;;;;;;2.85;1.85;;;;;;;7.84;88.4248;95263.06;;;;
2022/09/18 00:50:12;;;;;;;3.900001;1.9;;;;;;;7.87;88.55859;95257.4;;;;
2022/09/18 00:51:18;;;;;;;3.900001;1.9;;;;;;;7.87;88.55859;95257.4;;;;
2022/09/18 00:52:19;;;;;;;3.900001;1.9;;;;;;;7.87;88.55859;95257.4;;;;
2022/09/18 00:53:22;;;;;;;3.900001;1.9;;;;;;;7.87;88.55859;95257.4;;;;
2022/09/18 00:54:23;;;;;;;3.900001;1.9;;;;;;;7.87;88.55859;95257.4;;;;
2022/09/18 00:55:27;;;;;;;3.900001;1.9;;;;;;;7.87;88.55859;95257.4;;;;
2022/09/18 00:56:31;;;;;;;3.900001;1.9;;;;;;;7.87;88.55859;95257.4;;;;
2022/09/18 00:57:32;;;;;;;3.900001;1.9;;;;;;;7.87;88.55859;95257.4;;;;
2022/09/18 00:58:36;;;;;;;3.900001;1.9;;;;;;;7.87;88.55859;95257.4;;;;
2022/09/18 00:59:37;;;;;;;3.900001;1.9;;;;;;;7.87;88.55859;95257.4;;;;
2022/09/18 01:00:42;;;;;;;4.6;1.9;;;;;;;7.84;88.62793;95256.48;;;;
2022/09/18 01:01:42;;;;;;;4.6;1.9;;;;;;;7.84;88.62793;95256.48;;;;
2022/09/18 01:02:43;;;;;;;4.6;1.9;;;;;;;7.84;88.62793;95256.48;;;;
2022/09/18 01:03:45;;;;;;;4.6;1.9;;;;;;;7.84;88.62793;95256.48;;;;
2022/09/18 01:04:46;;;;;;;4.6;1.9;;;;;;;7.84;88.62793;95256.48;;;;
2022/09/18 01:05:48;;;;;;;4.6;1.9;;;;;;;7.84;88.62793;95256.48;;;;
2022/09/18 01:07:03;;;;;;;4.6;1.9;;;;;;;7.84;88.62793;95256.48;;;;
2022/09/18 01:08:13;;;;;;;4.6;1.9;;;;;;;7.84;88.62793;95256.48;;;;
2022/09/18 01:09:25;;;;;;;4.6;1.9;;;;;;;7.84;88.62793;95256.48;;;;
2022/09/18 01:10:36;;;;;;;4.6;1.9;;;;;;;7.84;88.62793;95256.48;;;;
2022/09/18 01:11:49;;;;;;;4.35;1.8;;;;;;;7.73;88.7002;95270.17;;;;
2022/09/18 01:12:54;;;;;;;4.35;1.8;;;;;;;7.73;88.7002;95270.17;;;;
2022/09/18 01:14:00;;;;;;;4.35;1.8;;;;;;;7.73;88.7002;95270.17;;;;
2022/09/18 01:15:12;;;;;;;4.35;1.8;;;;;;;7.73;88.7002;95270.17;;;;
2022/09/18 01:16:21;;;;;;;4.35;1.8;;;;;;;7.73;88.7002;95270.17;;;;
2022/09/18 01:17:27;;;;;;;4.35;1.8;;;;;;;7.73;88.7002;95270.17;;;;
2022/09/18 01:18:37;;;;;;;4.35;1.8;;;;;;;7.73;88.7002;95270.17;;;;
2022/09/18 01:19:45;;;;;;;4.35;1.8;;;;;;;7.73;88.7002;95270.17;;;;
2022/09/18 01:21:05;;;;;;;4.35;1.8;;;;;;;7.73;88.7002;95270.17;;;;
2022/09/18 01:22:10;;;;;;;5.25;1.6;;;;;;;7.68;88.87207;95277.03;;;;
2022/09/18 01:23:24;;;;;;;5.25;1.6;;;;;;;7.68;88.87207;95277.03;;;;
2022/09/18 01:24:45;;;;;;;5.25;1.6;;;;;;;7.68;88.87207;95277.03;;;;
2022/09/18 01:26:02;;;;;;;5.25;1.6;;;;;;;7.68;88.87207;95277.03;;;;
2022/09/18 01:27:19;;;;;;;5.25;1.6;;;;;;;7.68;88.87207;95277.03;;;;
2022/09/18 01:28:29;;;;;;;5.25;1.6;;;;;;;7.68;88.87207;95277.03;;;;
2022/09/18 01:29:36;;;;;;;5.25;1.6;;;;;;;7.68;88.87207;95277.03;;;;
2022/09/18 01:30:45;;;;;;;5.25;1.6;;;;;;;7.68;88.87207;95277.03;;;;
2022/09/18 01:31:49;;;;;;;5.25;1.6;;;;;;;7.68;88.87207;95277.03;;;;
2022/09/18 01:32:55;;;;;;;2.1;1.4;;;;;;;7.71;89.06934;95282.31;;;;
2022/09/18 01:34:01;;;;;;;2.1;1.4;;;;;;;7.71;89.06934;95282.31;;;;
2022/09/18 01:35:12;;;;;;;2.1;1.4;;;;;;;7.71;89.06934;95282.31;;;;
2022/09/18 01:36:17;;;;;;;2.1;1.4;;;;;;;7.71;89.06934;95282.31;;;;
2022/09/18 01:37:23;;;;;;;2.1;1.4;;;;;;;7.71;89.06934;95282.31;;;;
2022/09/18 01:38:31;;;;;;;2.1;1.4;;;;;;;7.71;89.06934;95282.31;;;;
2022/09/18 01:39:37;;;;;;;2.1;1.4;;;;;;;7.71;89.06934;95282.31;;;;
2022/09/18 01:40:43;;;;;;;2.1;1.4;;;;;;;7.71;89.06934;95282.31;;;;
2022/09/18 01:41:50;;;;;;;2.1;1.4;;;;;;;7.71;89.06934;95282.31;;;;
2022/09/18 01:42:52;;;;;;;4.6;2.2;;;;;;;7.8;89.28027;95277.19;;;;
2022/09/18 01:43:58;;;;;;;4.6;2.2;;;;;;;7.8;89.28027;95277.19;;;;
2022/09/18 01:45:04;;;;;;;4.6;2.2;;;;;;;7.8;89.28027;95277.19;;;;
2022/09/18 01:46:09;;;;;;;4.6;2.2;;;;;;;7.8;89.28027;95277.19;;;;
2022/09/18 01:47:14;;;;;;;4.6;2.2;;;;;;;7.8;89.28027;95277.19;;;;
2022/09/18 01:48:19;;;;;;;4.6;2.2;;;;;;;7.8;89.28027;95277.19;;;;
2022/09/18 01:49:25;;;;;;;4.6;2.2;;;;;;;7.8;89.28027;95277.19;;;;
2022/09/18 01:50:32;;;;;;;4.6;2.2;;;;;;;7.8;89.28027;95277.19;;;;
2022/09/18 01:51:38;;;;;;;4.6;2.2;;;;;;;7.8;89.28027;95277.19;;;;
2022/09/18 01:52:43;;;;;;;4.6;2.2;;;;;;;7.8;89.28027;95277.19;;;;
2022/09/18 01:53:48;;;;;;;2.5;2;;;;;;;7.85;89.24707;95273.07;;;;
2022/09/18 01:54:54;;;;;;;2.5;2;;;;;;;7.85;89.24707;95273.07;;;;
2022/09/18 01:55:57;;;;;;;2.5;2;;;;;;;7.85;89.24707;95273.07;;;;
2022/09/18 01:57:03;;;;;;;2.5;2;;;;;;;7.85;89.24707;95273.07;;;;
2022/09/18 01:58:09;;;;;;;2.5;2;;;;;;;7.85;89.24707;95273.07;;;;
2022/09/18 01:59:14;;;;;;;2.5;2;;;;;;;7.85;89.24707;95273.07;;;;
2022/09/18 02:00:23;;;;;;;2.5;2;;;;;;;7.85;89.24707;95273.07;;;;
2022/09/18 02:01:24;;;;;;;2.5;2;;;;;;;7.85;89.24707;95273.07;;;;
2022/09/18 02:02:28;;;;;;;2.5;2;;;;;;;7.85;89.24707;95273.07;;;;
2022/09/18 02:03:34;;;;;;;2.5;2;;;;;;;7.85;89.24707;95273.07;;;;
2022/09/18 02:04:38;;;;;;;2.649999;2.3;;;;;;;7.87;89.45313;95273.69;;;;
2022/09/18 02:05:41;;;;;;;2.649999;2.3;;;;;;;7.87;89.45313;95273.69;;;;
2022/09/18 02:06:47;;;;;;;2.649999;2.3;;;;;;;7.87;89.45313;95273.69;;;;
2022/09/18 02:07:55;;;;;;;2.649999;2.3;;;;;;;7.87;89.45313;95273.69;;;;
2022/09/18 02:09:04;;;;;;;2.649999;2.3;;;;;;;7.87;89.45313;95273.69;;;;
2022/09/18 02:10:07;;;;;;;2.649999;2.3;;;;;;;7.87;89.45313;95273.69;;;;
2022/09/18 02:11:08;;;;;;;2.649999;2.3;;;;;;;7.87;89.45313;95273.69;;;;
2022/09/18 02:12:10;;;;;;;2.649999;2.3;;;;;;;7.87;89.45313;95273.69;;;;
2022/09/18 02:13:18;;;;;;;2.649999;2.3;;;;;;;7.87;89.45313;95273.69;;;;
2022/09/18 02:14:23;;;;;;;2.649999;2.3;;;;;;;7.87;89.45313;95273.69;;;;
2022/09/18 02:15:30;;;;;;;6.900001;2.5;;;;;;;7.87;89.43164;95271.06;;;;
2022/09/18 02:16:36;;;;;;;6.900001;2.5;;;;;;;7.87;89.43164;95271.06;;;;
2022/09/18 02:17:41;;;;;;;6.900001;2.5;;;;;;;7.87;89.43164;95271.06;;;;
2022/09/18 02:18:48;;;;;;;6.900001;2.5;;;;;;;7.87;89.43164;95271.06;;;;
2022/09/18 02:19:54;;;;;;;6.900001;2.5;;;;;;;7.87;89.43164;95271.06;;;;
2022/09/18 02:20:58;;;;;;;6.900001;2.5;;;;;;;7.87;89.43164;95271.06;;;;
2022/09/18 02:22:00;;;;;;;6.900001;2.5;;;;;;;7.87;89.43164;95271.06;;;;
2022/09/18 02:23:06;;;;;;;6.900001;2.5;;;;;;;7.87;89.43164;95271.06;;;;
2022/09/18 02:24:08;;;;;;;6.900001;2.5;;;;;;;7.87;89.43164;95271.06;;;;
2022/09/18 02:25:10;;;;;;;6.900001;2.5;;;;;;;7.87;89.43164;95271.06;;;;
2022/09/18 02:26:14;;;;;;;4.150001;2.2;;;;;;;7.9;89.54395;95258.82;;;;
2022/09/18 02:27:17;;;;;;;4.150001;2.2;;;;;;;7.9;89.54395;95258.82;;;;
2022/09/18 02:28:20;;;;;;;4.150001;2.2;;;;;;;7.9;89.54395;95258.82;;;;
2022/09/18 02:29:24;;;;;;;4.150001;2.2;;;;;;;7.9;89.54395;95258.82;;;;
2022/09/18 02:30:26;;;;;;;4.150001;2.2;;;;;;;7.9;89.54395;95258.82;;;;
2022/09/18 02:31:27;;;;;;;4.150001;2.2;;;;;;;7.9;89.54395;95258.82;;;;
2022/09/18 02:32:28;;;;;;;4.150001;2.2;;;;;;;7.9;89.54395;95258.82;;;;
2022/09/18 02:33:28;;;;;;;4.150001;2.2;;;;;;;7.9;89.54395;95258.82;;;;
2022/09/18 02:34:32;;;;;;;4.150001;2.2;;;;;;;7.9;89.54395;95258.82;;;;
2022/09/18 02:35:33;;;;;;;4.150001;2.2;;;;;;;7.9;89.54395;95258.82;;;;
2022/09/18 02:36:41;;;;;;;4.45;2.1;;;;;;;7.89;89.6377;95255.4;;;;
2022/09/18 02:37:54;;;;;;;4.45;2.1;;;;;;;7.89;89.6377;95255.4;;;;
2022/09/18 02:39:03;;;;;;;4.45;2.1;;;;;;;7.89;89.6377;95255.4;;;;
2022/09/18 02:40:18;;;;;;;4.45;2.1;;;;;;;7.89;89.6377;95255.4;;;;
2022/09/18 02:41:30;;;;;;;4.45;2.1;;;;;;;7.89;89.6377;95255.4;;;;
2022/09/18 02:42:42;;;;;;;4.45;2.1;;;;;;;7.89;89.6377;95255.4;;;;
2022/09/18 02:43:53;;;;;;;4.45;2.1;;;;;;;7.89;89.6377;95255.4;;;;
2022/09/18 02:45:01;;;;;;;4.45;2.1;;;;;;;7.89;89.6377;95255.4;;;;
2022/09/18 02:46:09;;;;;;;4.45;2.1;;;;;;;7.89;89.6377;95255.4;;;;
2022/09/18 02:47:20;;;;;;;4.6;2.5;;;;;;;7.94;89.93652;95252.58;;;;
2022/09/18 02:48:31;;;;;;;4.6;2.5;;;;;;;7.94;89.93652;95252.58;;;;
2022/09/18 02:49:45;;;;;;;4.6;2.5;;;;;;;7.94;89.93652;95252.58;;;;
2022/09/18 02:50:57;;;;;;;4.6;2.5;;;;;;;7.94;89.93652;95252.58;;;;
2022/09/18 02:52:06;;;;;;;4.6;2.5;;;;;;;7.94;89.93652;95252.58;;;;
2022/09/18 02:53:13;;;;;;;4.6;2.5;;;;;;;7.94;89.93652;95252.58;;;;
2022/09/18 02:54:20;;;;;;;4.6;2.5;;;;;;;7.94;89.93652;95252.58;;;;
2022/09/18 02:55:29;;;;;;;4.6;2.5;;;;;;;7.94;89.93652;95252.58;;;;
2022/09/18 02:56:41;;;;;;;4.6;2.5;;;;;;;7.94;89.93652;95252.58;;;;
2022/09/18 02:57:44;;;;;;;3.350001;2.05;;;;;;;8;90.07813;95243.89;;;;
2022/09/18 02:58:51;;;;;;;3.350001;2.05;;;;;;;8;90.07813;95243.89;;;;
2022/09/18 02:59:55;;;;;;;3.350001;2.05;;;;;;;8;90.07813;95243.89;;;;
2022/09/18 03:00:59;;;;;;;3.350001;2.05;;;;;;;8;90.07813;95243.89;;;;
2022/09/18 03:02:03;;;;;;;3.350001;2.05;;;;;;;8;90.07813;95243.89;;;;
2022/09/18 03:03:05;;;;;;;3.350001;2.05;;;;;;;8;90.07813;95243.89;;;;
2022/09/18 03:04:12;;;;;;;3.350001;2.05;;;;;;;8;90.07813;95243.89;;;;
2022/09/18 03:05:18;;;;;;;3.350001;2.05;;;;;;;8;90.07813;95243.89;;;;
2022/09/18 03:06:18;;;;;;;3.350001;2.05;;;;;;;8;90.07813;95243.89;;;;
2022/09/18 03:07:19;;;;;;;3.350001;2.05;;;;;;;8;90.07813;95243.89;;;;
2022/09/18 03:08:19;;;;;;;4.2;2.4;;;;;;;8.07;90.21777;95243.91;;;;
2022/09/18 03:09:21;;;;;;;4.2;2.4;;;;;;;8.07;90.21777;95243.91;;;;
2022/09/18 03:10:21;;;;;;;4.2;2.4;;;;;;;8.07;90.21777;95243.91;;;;
2022/09/18 03:11:22;;;;;;;4.2;2.4;;;;;;;8.07;90.21777;95243.91;;;;
2022/09/18 03:12:22;;;;;;;4.2;2.4;;;;;;;8.07;90.21777;95243.91;;;;
2022/09/18 03:13:23;;;;;;;4.2;2.4;;;;;;;8.07;90.21777;95243.91;;;;
2022/09/18 03:14:23;;;;;;;4.2;2.4;;;;;;;8.07;90.21777;95243.91;;;;
2022/09/18 03:15:23;;;;;;;4.2;2.4;;;;;;;8.07;90.21777;95243.91;;;;
2022/09/18 03:16:24;;;;;;;4.2;2.4;;;;;;;8.07;90.21777;95243.91;;;;
2022/09/18 03:17:24;;;;;;;4.2;2.4;;;;;;;8.07;90.21777;95243.91;;;;
2022/09/18 03:18:25;;;;;;;4.2;2.4;;;;;;;8.07;90.21777;95243.91;;;;
2022/09/18 03:19:26;;;;;;;3.999999;2.2;;;;;;;8.14;90.30762;95236.86;;;;
2022/09/18 03:20:26;;;;;;;3.999999;2.2;;;;;;;8.14;90.30762;95236.86;;;;
2022/09/18 03:21:27;;;;;;;3.999999;2.2;;;;;;;8.14;90.30762;95236.86;;;;
2022/09/18 03:22:27;;;;;;;3.999999;2.2;;;;;;;8.14;90.30762;95236.86;;;;
2022/09/18 03:23:28;;;;;;;3.999999;2.2;;;;;;;8.14;90.30762;95236.86;;;;
2022/09/18 03:24:29;;;;;;;3.999999;2.2;;;;;;;8.14;90.30762;95236.86;;;;
2022/09/18 03:25:30;;;;;;;3.999999;2.2;;;;;;;8.14;90.30762;95236.86;;;;
2022/09/18 03:26:31;;;;;;;3.999999;2.2;;;;;;;8.14;90.30762;95236.86;;;;
2022/09/18 03:27:31;;;;;;;3.999999;2.2;;;;;;;8.14;90.30762;95236.86;;;;
2022/09/18 03:28:32;;;;;;;3.999999;2.2;;;;;;;8.14;90.30762;95236.86;;;;
2022/09/18 03:29:32;;;;;;;6.350001;2.2;;;;;;;8.18;90.33691;95236.76;;;;
2022/09/18 03:30:33;;;;;;;6.350001;2.2;;;;;;;8.18;90.33691;95236.76;;;;
2022/09/18 03:31:34;;;;;;;6.350001;2.2;;;;;;;8.18;90.33691;95236.76;;;;
2022/09/18 03:32:35;;;;;;;6.350001;2.2;;;;;;;8.18;90.33691;95236.76;;;;
2022/09/18 03:33:35;;;;;;;6.350001;2.2;;;;;;;8.18;90.33691;95236.76;;;;
2022/09/18 03:34:36;;;;;;;6.350001;2.2;;;;;;;8.18;90.33691;95236.76;;;;
2022/09/18 03:35:37;;;;;;;6.350001;2.2;;;;;;;8.18;90.33691;95236.76;;;;
2022/09/18 03:36:37;;;;;;;6.350001;2.2;;;;;;;8.18;90.33691;95236.76;;;;
2022/09/18 03:37:37;;;;;;;6.350001;2.2;;;;;;;8.18;90.33691;95236.76;;;;
2022/09/18 03:38:39;;;;;;;6.350001;2.2;;;;;;;8.18;90.33691;95236.76;;;;
2022/09/18 03:39:40;;;;;;;6.350001;2.2;;;;;;;8.18;90.33691;95236.76;;;;
2022/09/18 03:40:40;;;;;;;3.55;2.05;;;;;;;8.23;90.41016;95242.24;;;;
2022/09/18 03:41:42;;;;;;;3.55;2.05;;;;;;;8.23;90.41016;95242.24;;;;
2022/09/18 03:42:43;;;;;;;3.55;2.05;;;;;;;8.23;90.41016;95242.24;;;;
2022/09/18 03:43:44;;;;;;;3.55;2.05;;;;;;;8.23;90.41016;95242.24;;;;
2022/09/18 03:44:44;;;;;;;3.55;2.05;;;;;;;8.23;90.41016;95242.24;;;;
2022/09/18 03:45:45;;;;;;;3.55;2.05;;;;;;;8.23;90.41016;95242.24;;;;
2022/09/18 03:46:45;;;;;;;3.55;2.05;;;;;;;8.23;90.41016;95242.24;;;;
2022/09/18 03:47:46;;;;;;;3.55;2.05;;;;;;;8.23;90.41016;95242.24;;;;
2022/09/18 03:48:46;;;;;;;3.55;2.05;;;;;;;8.23;90.41016;95242.24;;;;
2022/09/18 03:49:47;;;;;;;3.55;2.05;;;;;;;8.23;90.41016;95242.24;;;;
2022/09/18 03:50:47;;;;;;;3.55;2.05;;;;;;;8.23;90.41016;95242.24;;;;
2022/09/18 03:51:48;;;;;;;3.5;2.2;;;;;;;8.31;90.49121;95248.67;;;;
2022/09/18 03:52:49;;;;;;;3.5;2.2;;;;;;;8.31;90.49121;95248.67;;;;
2022/09/18 03:53:50;;;;;;;3.5;2.2;;;;;;;8.31;90.49121;95248.67;;;;
2022/09/18 03:54:50;;;;;;;3.5;2.2;;;;;;;8.31;90.49121;95248.67;;;;
2022/09/18 03:55:51;;;;;;;3.5;2.2;;;;;;;8.31;90.49121;95248.67;;;;
2022/09/18 03:56:51;;;;;;;3.5;2.2;;;;;;;8.31;90.49121;95248.67;;;;
2022/09/18 03:57:51;;;;;;;3.5;2.2;;;;;;;8.31;90.49121;95248.67;;;;
2022/09/18 03:58:52;;;;;;;3.5;2.2;;;;;;;8.31;90.49121;95248.67;;;;
2022/09/18 03:59:53;;;;;;;3.5;2.2;;;;;;;8.31;90.49121;95248.67;;;;
2022/09/18 04:00:54;;;;;;;3.5;2.2;;;;;;;8.31;90.49121;95248.67;;;;
2022/09/18 04:01:54;;;;;;;3.95;2.05;;;;;;;8.38;90.54785;95243.34;;;;
2022/09/18 04:02:55;;;;;;;3.95;2.05;;;;;;;8.38;90.54785;95243.34;;;;
2022/09/18 04:03:55;;;;;;;3.95;2.05;;;;;;;8.38;90.54785;95243.34;;;;
2022/09/18 04:04:56;;;;;;;3.95;2.05;;;;;;;8.38;90.54785;95243.34;;;;
2022/09/18 04:05:57;;;;;;;3.95;2.05;;;;;;;8.38;90.54785;95243.34;;;;
2022/09/18 04:06:58;;;;;;;3.95;2.05;;;;;;;8.38;90.54785;95243.34;;;;
2022/09/18 04:07:58;;;;;;;3.95;2.05;;;;;;;8.38;90.54785;95243.34;;;;
2022/09/18 04:08:59;;;;;;;3.95;2.05;;;;;;;8.38;90.54785;95243.34;;;;
2022/09/18 04:09:59;;;;;;;3.95;2.05;;;;;;;8.38;90.54785;95243.34;;;;
2022/09/18 04:11:02;;;;;;;3.95;2.05;;;;;;;8.38;90.54785;95243.34;;;;
2022/09/18 04:12:03;;;;;;;3.95;2.05;;;;;;;8.38;90.54785;95243.34;;;;
2022/09/18 04:13:04;;;;;;;4.6;2.25;;;;;;;8.39;90.57324;95249.72;;;;
2022/09/18 04:14:05;;;;;;;4.6;2.25;;;;;;;8.39;90.57324;95249.72;;;;
2022/09/18 04:15:05;;;;;;;4.6;2.25;;;;;;;8.39;90.57324;95249.72;;;;
2022/09/18 04:16:07;;;;;;;4.6;2.25;;;;;;;8.39;90.57324;95249.72;;;;
2022/09/18 04:17:07;;;;;;;4.6;2.25;;;;;;;8.39;90.57324;95249.72;;;;
2022/09/18 04:18:08;;;;;;;4.6;2.25;;;;;;;8.39;90.57324;95249.72;;;;
2022/09/18 04:19:08;;;;;;;4.6;2.25;;;;;;;8.39;90.57324;95249.72;;;;
2022/09/18 04:20:09;;;;;;;4.6;2.25;;;;;;;8.39;90.57324;95249.72;;;;
2022/09/18 04:21:10;;;;;;;4.6;2.25;;;;;;;8.39;90.57324;95249.72;;;;
2022/09/18 04:22:10;;;;;;;4.6;2.25;;;;;;;8.39;90.57324;95249.72;;;;
2022/09/18 04:23:13;;;;;;;4.2;2.45;;;;;;;8.46;90.66113;95252.87;;;;
2022/09/18 04:24:13;;;;;;;4.2;2.45;;;;;;;8.46;90.66113;95252.87;;;;
2022/09/18 04:25:14;;;;;;;4.2;2.45;;;;;;;8.46;90.66113;95252.87;;;;
2022/09/18 04:26:15;;;;;;;4.2;2.45;;;;;;;8.46;90.66113;95252.87;;;;
2022/09/18 04:27:16;;;;;;;4.2;2.45;;;;;;;8.46;90.66113;95252.87;;;;
2022/09/18 04:28:16;;;;;;;4.2;2.45;;;;;;;8.46;90.66113;95252.87;;;;
2022/09/18 04:29:17;;;;;;;4.2;2.45;;;;;;;8.46;90.66113;95252.87;;;;
2022/09/18 04:30:17;;;;;;;4.2;2.45;;;;;;;8.46;90.66113;95252.87;;;;
2022/09/18 04:31:18;;;;;;;4.2;2.45;;;;;;;8.46;90.66113;95252.87;;;;
2022/09/18 04:32:18;;;;;;;4.2;2.45;;;;;;;8.46;90.66113;95252.87;;;;
2022/09/18 04:33:19;;;;;;;4.2;2.45;;;;;;;8.46;90.66113;95252.87;;;;
2022/09/18 04:34:19;;;;;;;3.949999;2.4;;;;;;;8.51;90.68359;95245.06;;;;
2022/09/18 04:35:20;;;;;;;3.949999;2.4;;;;;;;8.51;90.68359;95245.06;;;;
2022/09/18 04:36:20;;;;;;;3.949999;2.4;;;;;;;8.51;90.68359;95245.06;;;;
2022/09/18 04:37:21;;;;;;;3.949999;2.4;;;;;;;8.51;90.68359;95245.06;;;;
2022/09/18 04:38:26;;;;;;;3.949999;2.4;;;;;;;8.51;90.68359;95245.06;;;;
2022/09/18 04:39:27;;;;;;;3.949999;2.4;;;;;;;8.51;90.68359;95245.06;;;;
2022/09/18 04:40:28;;;;;;;3.949999;2.4;;;;;;;8.51;90.68359;95245.06;;;;
2022/09/18 04:41:28;;;;;;;3.949999;2.4;;;;;;;8.51;90.68359;95245.06;;;;
2022/09/18 04:42:29;;;;;;;3.949999;2.4;;;;;;;8.51;90.68359;95245.06;;;;
2022/09/18 04:43:30;;;;;;;3.949999;2.4;;;;;;;8.51;90.68359;95245.06;;;;
2022/09/18 04:44:31;;;;;;;5.900001;2.5;;;;;;;8.58;90.74023;95252.57;;;;
2022/09/18 04:45:31;;;;;;;5.900001;2.5;;;;;;;8.58;90.74023;95252.57;;;;
2022/09/18 04:46:32;;;;;;;5.900001;2.5;;;;;;;8.58;90.74023;95252.57;;;;
2022/09/18 04:47:32;;;;;;;5.900001;2.5;;;;;;;8.58;90.74023;95252.57;;;;
2022/09/18 04:48:33;;;;;;;5.900001;2.5;;;;;;;8.58;90.74023;95252.57;;;;
2022/09/18 04:49:33;;;;;;;5.900001;2.5;;;;;;;8.58;90.74023;95252.57;;;;
2022/09/18 04:50:34;;;;;;;5.900001;2.5;;;;;;;8.58;90.74023;95252.57;;;;
2022/09/18 04:51:34;;;;;;;5.900001;2.5;;;;;;;8.58;90.74023;95252.57;;;;
2022/09/18 04:52:35;;;;;;;5.900001;2.5;;;;;;;8.58;90.74023;95252.57;;;;
2022/09/18 04:53:36;;;;;;;5.900001;2.5;;;;;;;8.58;90.74023;95252.57;;;;
2022/09/18 04:54:37;;;;;;;5.900001;2.5;;;;;;;8.58;90.74023;95252.57;;;;
2022/09/18 04:55:38;;;;;;;4.45;2.1;;;;;;;8.63;90.72852;95260.19;;;;
2022/09/18 04:56:41;;;;;;;4.45;2.1;;;;;;;8.63;90.72852;95260.19;;;;
2022/09/18 04:57:41;;;;;;;4.45;2.1;;;;;;;8.63;90.72852;95260.19;;;;
2022/09/18 04:58:42;;;;;;;4.45;2.1;;;;;;;8.63;90.72852;95260.19;;;;
2022/09/18 04:59:42;;;;;;;4.45;2.1;;;;;;;8.63;90.72852;95260.19;;;;
2022/09/18 05:00:43;;;;;;;4.45;2.1;;;;;;;8.63;90.72852;95260.19;;;;
2022/09/18 05:01:43;;;;;;;4.45;2.1;;;;;;;8.63;90.72852;95260.19;;;;
2022/09/18 05:02:44;;;;;;;4.45;2.1;;;;;;;8.63;90.72852;95260.19;;;;
2022/09/18 05:03:44;;;;;;;4.45;2.1;;;;;;;8.63;90.72852;95260.19;;;;
2022/09/18 05:04:44;;;;;;;4.45;2.1;;;;;;;8.63;90.72852;95260.19;;;;
2022/09/18 05:05:45;;;;;;;5;2;;;;;;;8.65;90.72168;95258.59;;;;
2022/09/18 05:06:45;;;;;;;5;2;;;;;;;8.65;90.72168;95258.59;;;;
2022/09/18 05:07:46;;;;;;;5;2;;;;;;;8.65;90.72168;95258.59;;;;
2022/09/18 05:08:46;;;;;;;5;2;;;;;;;8.65;90.72168;95258.59;;;;
2022/09/18 05:09:47;;;;;;;5;2;;;;;;;8.65;90.72168;95258.59;;;;
2022/09/18 05:10:47;;;;;;;5;2;;;;;;;8.65;90.72168;95258.59;;;;
2022/09/18 05:11:48;;;;;;;5;2;;;;;;;8.65;90.72168;95258.59;;;;
2022/09/18 05:12:49;;;;;;;5;2;;;;;;;8.65;90.72168;95258.59;;;;
2022/09/18 05:13:51;;;;;;;5;2;;;;;;;8.65;90.72168;95258.59;;;;
2022/09/18 05:14:51;;;;;;;5;2;;;;;;;8.65;90.72168;95258.59;;;;
2022/09/18 05:15:52;;;;;;;5;2;;;;;;;8.65;90.72168;95258.59;;;;
2022/09/18 05:16:55;;;;;;;4.8;2.45;;;;;;;8.68;90.70605;95269.22;;;;
2022/09/18 05:17:55;;;;;;;4.8;2.45;;;;;;;8.68;90.70605;95269.22;;;;
2022/09/18 05:18:58;;;;;;;4.8;2.45;;;;;;;8.68;90.70605;95269.22;;;;
2022/09/18 05:19:59;;;;;;;4.8;2.45;;;;;;;8.68;90.70605;95269.22;;;;
2022/09/18 05:20:59;;;;;;;4.8;2.45;;;;;;;8.68;90.70605;95269.22;;;;
2022/09/18 05:22:00;;;;;;;4.8;2.45;;;;;;;8.68;90.70605;95269.22;;;;
2022/09/18 05:23:00;;;;;;;4.8;2.45;;;;;;;8.68;90.70605;95269.22;;;;
2022/09/18 05:24:01;;;;;;;4.8;2.45;;;;;;;8.68;90.70605;95269.22;;;;
2022/09/18 05:25:02;;;;;;;4.8;2.45;;;;;;;8.68;90.70605;95269.22;;;;
2022/09/18 05:26:03;;;;;;;4.8;2.45;;;;;;;8.68;90.70605;95269.22;;;;
2022/09/18 05:27:03;;;;;;;4.2;2.1;;;;;;;8.79;90.76172;95276.53;;;;
2022/09/18 05:28:04;;;;;;;4.2;2.1;;;;;;;8.79;90.76172;95276.53;;;;
2022/09/18 05:29:05;;;;;;;4.2;2.1;;;;;;;8.79;90.76172;95276.53;;;;
2022/09/18 05:30:05;;;;;;;4.2;2.1;;;;;;;8.79;90.76172;95276.53;;;;
2022/09/18 05:31:07;;;;;;;4.2;2.1;;;;;;;8.79;90.76172;95276.53;;;;
2022/09/18 05:32:08;;;;;;;4.2;2.1;;;;;;;8.79;90.76172;95276.53;;;;
2022/09/18 05:33:08;;;;;;;4.2;2.1;;;;;;;8.79;90.76172;95276.53;;;;
2022/09/18 05:34:10;;;;;;;4.2;2.1;;;;;;;8.79;90.76172;95276.53;;;;
2022/09/18 05:35:11;;;;;;;4.2;2.1;;;;;;;8.79;90.76172;95276.53;;;;
2022/09/18 05:36:11;;;;;;;4.2;2.1;;;;;;;8.79;90.76172;95276.53;;;;
2022/09/18 05:37:12;;;;;;;4.2;2.1;;;;;;;8.79;90.76172;95276.53;;;;
2022/09/18 05:38:12;;;;;;;6.1;2.6;;;;;;;8.92;90.66309;95276.95;;;;
2022/09/18 05:39:13;;;;;;;6.1;2.6;;;;;;;8.92;90.66309;95276.95;;;;
2022/09/18 05:40:13;;;;;;;6.1;2.6;;;;;;;8.92;90.66309;95276.95;;;;
2022/09/18 05:41:14;;;;;;;6.1;2.6;;;;;;;8.92;90.66309;95276.95;;;;
2022/09/18 05:42:14;;;;;;;6.1;2.6;;;;;;;8.92;90.66309;95276.95;;;;
2022/09/18 05:43:15;;;;;;;6.1;2.6;;;;;;;8.92;90.66309;95276.95;;;;
2022/09/18 05:44:16;;;;;;;6.1;2.6;;;;;;;8.92;90.66309;95276.95;;;;
2022/09/18 05:45:17;;;;;;;6.1;2.6;;;;;;;8.92;90.66309;95276.95;;;;
2022/09/18 05:46:19;;;;;;;6.1;2.6;;;;;;;8.92;90.66309;95276.95;;;;
2022/09/18 05:47:19;;;;;;;6.1;2.6;;;;;;;8.92;90.66309;95276.95;;;;
2022/09/18 05:48:20;;;;;;;6.1;2.6;;;;;;;8.92;90.66309;95276.95;;;;
2022/09/18 05:49:20;;;;;;;4.5;2.4;;;;;;;8.99;90.67578;95284.86;;;;
2022/09/18 05:50:22;;;;;;;4.5;2.4;;;;;;;8.99;90.67578;95284.86;;;;
2022/09/18 05:51:23;;;;;;;4.5;2.4;;;;;;;8.99;90.67578;95284.86;;;;
2022/09/18 05:52:24;;;;;;;4.5;2.4;;;;;;;8.99;90.67578;95284.86;;;;
2022/09/18 05:53:24;;;;;;;4.5;2.4;;;;;;;8.99;90.67578;95284.86;;;;
2022/09/18 05:54:25;;;;;;;4.5;2.4;;;;;;;8.99;90.67578;95284.86;;;;
2022/09/18 05:55:27;;;;;;;4.5;2.4;;;;;;;8.99;90.67578;95284.86;;;;
2022/09/18 05:56:28;;;;;;;4.5;2.4;;;;;;;8.99;90.67578;95284.86;;;;
2022/09/18 05:57:28;;;;;;;4.5;2.4;;;;;;;8.99;90.67578;95284.86;;;;
2022/09/18 05:58:29;;;;;;;4.5;2.4;;;;;;;8.99;90.67578;95284.86;;;;
2022/09/18 05:59:29;;;;;;;3.5;2.4;;;;;;;9.1;90.6875;95285.58;;;;
2022/09/18 06:00:30;;;;;;;3.5;2.4;;;;;;;9.1;90.6875;95285.58;;;;
2022/09/18 06:01:32;;;;;;;3.5;2.4;;;;;;;9.1;90.6875;95285.58;;;;
2022/09/18 06:02:33;;;;;;;3.5;2.4;;;;;;;9.1;90.6875;95285.58;;;;
2022/09/18 06:03:33;;;;;;;3.5;2.4;;;;;;;9.1;90.6875;95285.58;;;;